To NAV CANADA Home Page Login to a new session Search on AWWS site Feedback and Comments Disclaimer Vers la page française équivalente Tips FAQ What's new on the site To the Forecasts and Observations / NOTAM section To "File a Flight Plan" website Publications and other links Update of the User's profile FIC Telephone Numbers My Weather Data Folder Route Weather Data Regional Weather Data Local Weather Data To the Forecasts and Observations / NOTAM section
Request Generated 09/03/2015 at 06:47:11 UTC . Weather information available at that time is displayed.

METAR/TAF

ST. JOHN'S/ST. JOHN'S INTL/NL    

METAR CYYT 030600Z 23007KT 15SM FEW240 09/07 A2973 RMK CI1 SLP069=
METAR CYYT 030500Z 24008KT 15SM FEW240 07/06 A2973 RMK CI1 SLP070=
METAR CYYT 030400Z 23005KT 15SM FEW240 07/06 A2973 RMK CI1 SLP072=

TAF CYYT 030538Z 0306/0406 24008KT P6SM FEW240 PROB30 0306/0310 1/2SM
FG VV001
FM031400 23012KT P6SM BKN015 TEMPO 0314/0316 BKN025
FM031600 21012G22KT P6SM -SHRA BKN025
BECMG 0316/0318 23012G22KT
FM032300 28012KT P6SM BKN020
BECMG 0402/0404 SCT020
RMK NXT FCST BY 031200Z=
Your time UTC time
Weather data provided by Environment Canada and NAV CANADA